PRIVATE WETTERSTATION BILLIGHEIM-ALLFELD                       ZURCK
Wetterdaten: Sonntag, 09.01.2022
Datum Zeit Temp. A. Temp. A. min Temp. A. max Feuchte A. Luftdruck Regen Wind Richtung Richtung Sonnenschein ET Solar Taupunkt Windchill Windben Empfang
09.01.2022 00:00 3,1 C 3,1 C 3,1 C 85 % 997,1 hPa 0,0 l/m 4,8 km/h (1 Bft) S-SO 157 0 min 0,000 mm 0 W/m 0,8 C 3,1 C 20,9 km/h (4 Bft) 97 %
09.01.2022 00:10 3,1 C 3,1 C 3,1 C 86 % 996,8 hPa 0,2 l/m 8,0 km/h (2 Bft) SO 135 0 min 0,000 mm 0 W/m 1,0 C 1,6 C 24,1 km/h (4 Bft) 98 %
09.01.2022 00:20 3,0 C 3,0 C 3,1 C 87 % 996,6 hPa 0,0 l/m 9,7 km/h (2 Bft) S-SO 157 0 min 0,000 mm 0 W/m 1,1 C 0,1 C 24,1 km/h (4 Bft) 98 %
09.01.2022 00:30 2,9 C 2,9 C 3,0 C 88 % 996,2 hPa 0,2 l/m 11,3 km/h (2 Bft) S-SO 157 0 min 0,000 mm 0 W/m 1,1 C -1,2 C 25,7 km/h (4 Bft) 98 %
09.01.2022 00:40 2,9 C 2,9 C 2,9 C 89 % 995,9 hPa 0,2 l/m 16,1 km/h (3 Bft) S-SO 157 0 min 0,000 mm 0 W/m 1,3 C -4,1 C 35,4 km/h (5 Bft) 98 %
09.01.2022 00:50 2,8 C 2,8 C 2,9 C 90 % 995,7 hPa 0,0 l/m 11,3 km/h (2 Bft) S-SO 157 0 min 0,000 mm 0 W/m 1,3 C -1,3 C 24,1 km/h (4 Bft) 97 %
09.01.2022 01:00 2,8 C 2,8 C 2,8 C 90 % 995,3 hPa 0,0 l/m 8,0 km/h (2 Bft) S-SO 157 0 min 0,025 mm 0 W/m 1,3 C 1,3 C 22,5 km/h (4 Bft) 89 %
09.01.2022 01:10 2,7 C 2,7 C 2,8 C 91 % 995,1 hPa 0,0 l/m 6,4 km/h (2 Bft) S-SO 157 0 min 0,000 mm 0 W/m 1,4 C 2,7 C 20,9 km/h (4 Bft) 97 %
09.01.2022 01:20 2,7 C 2,7 C 2,7 C 91 % 995,0 hPa 0,2 l/m 8,0 km/h (2 Bft) S-SO 157 0 min 0,000 mm 0 W/m 1,4 C 1,2 C 16,1 km/h (3 Bft) 98 %
09.01.2022 01:30 2,6 C 2,6 C 2,7 C 92 % 994,9 hPa 0,2 l/m 3,2 km/h (1 Bft) S-SO 157 0 min 0,000 mm 0 W/m 1,4 C 2,6 C 16,1 km/h (3 Bft) 98 %
09.01.2022 01:40 2,6 C 2,6 C 2,6 C 92 % 994,8 hPa 0,4 l/m 8,0 km/h (2 Bft) SO 135 0 min 0,000 mm 0 W/m 1,4 C 1,1 C 20,9 km/h (4 Bft) 98 %
09.01.2022 01:50 2,6 C 2,6 C 2,6 C 92 % 994,4 hPa 0,4 l/m 6,4 km/h (2 Bft) SO 135 0 min 0,000 mm 0 W/m 1,4 C 2,6 C 22,5 km/h (4 Bft) 98 %
09.01.2022 02:00 2,7 C 2,6 C 2,7 C 92 % 994,3 hPa 0,4 l/m 4,8 km/h (1 Bft) SO 135 0 min 0,000 mm 0 W/m 1,5 C 2,7 C 22,5 km/h (4 Bft) 97 %
09.01.2022 02:10 2,7 C 2,7 C 2,7 C 92 % 994,1 hPa 0,4 l/m 8,0 km/h (2 Bft) S-SO 157 0 min 0,000 mm 0 W/m 1,5 C 1,2 C 24,1 km/h (4 Bft) 98 %
09.01.2022 02:20 2,8 C 2,7 C 2,8 C 93 % 993,9 hPa 0,4 l/m 8,0 km/h (2 Bft) S-SO 157 0 min 0,000 mm 0 W/m 1,8 C 1,3 C 20,9 km/h (4 Bft) 97 %
09.01.2022 02:30 2,9 C 2,8 C 2,9 C 93 % 993,7 hPa 0,4 l/m 4,8 km/h (1 Bft) S-SO 157 0 min 0,000 mm 0 W/m 1,9 C 2,9 C 19,3 km/h (3 Bft) 98 %
09.01.2022 02:40 2,9 C 2,9 C 2,9 C 92 % 993,5 hPa 0,0 l/m 6,4 km/h (2 Bft) S-SO 157 0 min 0,000 mm 0 W/m 1,7 C 2,9 C 17,7 km/h (3 Bft) 98 %
09.01.2022 02:50 3,0 C 2,9 C 3,0 C 92 % 993,4 hPa 0,2 l/m 4,8 km/h (1 Bft) S-SO 157 0 min 0,000 mm 0 W/m 1,8 C 3,0 C 22,5 km/h (4 Bft) 98 %
09.01.2022 03:00 3,1 C 3,0 C 3,1 C 92 % 993,3 hPa 0,2 l/m 8,0 km/h (2 Bft) S-SO 157 0 min 0,000 mm 0 W/m 1,9 C 1,6 C 25,7 km/h (4 Bft) 99 %
09.01.2022 03:10 3,2 C 3,1 C 3,2 C 92 % 993,4 hPa 0,0 l/m 6,4 km/h (2 Bft) S-SO 157 0 min 0,000 mm 0 W/m 2,0 C 3,2 C 29,0 km/h (5 Bft) 99 %
09.01.2022 03:20 3,3 C 3,2 C 3,3 C 92 % 993,3 hPa 0,2 l/m 9,7 km/h (2 Bft) S-SO 157 0 min 0,000 mm 0 W/m 2,1 C 0,4 C 32,2 km/h (5 Bft) 99 %
09.01.2022 03:30 3,3 C 3,3 C 3,4 C 92 % 993,3 hPa 0,2 l/m 11,3 km/h (2 Bft) S 180 0 min 0,000 mm 0 W/m 2,1 C -0,7 C 27,4 km/h (4 Bft) 100 %
09.01.2022 03:40 3,4 C 3,4 C 3,4 C 93 % 993,3 hPa 0,2 l/m 12,9 km/h (3 Bft) S 180 0 min 0,000 mm 0 W/m 2,4 C -1,7 C 30,6 km/h (5 Bft) 100 %
09.01.2022 03:50 3,3 C 3,3 C 3,4 C 93 % 993,3 hPa 0,2 l/m 8,0 km/h (2 Bft) S 180 0 min 0,000 mm 0 W/m 2,3 C 1,8 C 24,1 km/h (4 Bft) 100 %
09.01.2022 04:00 3,3 C 3,3 C 3,3 C 93 % 993,3 hPa 0,0 l/m 9,7 km/h (2 Bft) S 180 0 min 0,000 mm 0 W/m 2,3 C 0,4 C 25,7 km/h (4 Bft) 100 %
09.01.2022 04:10 3,2 C 3,2 C 3,3 C 93 % 993,5 hPa 0,0 l/m 9,7 km/h (2 Bft) S 180 0 min 0,000 mm 0 W/m 2,2 C 0,3 C 24,1 km/h (4 Bft) 100 %
09.01.2022 04:20 3,2 C 3,2 C 3,2 C 92 % 993,5 hPa 0,2 l/m 9,7 km/h (2 Bft) S 180 0 min 0,000 mm 0 W/m 2,0 C 0,3 C 24,1 km/h (4 Bft) 100 %
09.01.2022 04:30 3,2 C 3,2 C 3,2 C 92 % 993,6 hPa 0,0 l/m 8,0 km/h (2 Bft) S-SO 157 0 min 0,000 mm 0 W/m 2,0 C 1,7 C 20,9 km/h (4 Bft) 100 %
09.01.2022 04:40 3,2 C 3,2 C 3,2 C 92 % 993,5 hPa 0,0 l/m 6,4 km/h (2 Bft) S-SO 157 0 min 0,000 mm 0 W/m 2,0 C 3,2 C 19,3 km/h (3 Bft) 100 %
09.01.2022 04:50 3,2 C 3,2 C 3,2 C 92 % 993,7 hPa 0,2 l/m 3,2 km/h (1 Bft) S-SW 202 0 min 0,000 mm 0 W/m 2,0 C 3,2 C 17,7 km/h (3 Bft) 100 %
09.01.2022 05:00 3,7 C 3,2 C 3,7 C 92 % 993,9 hPa 0,2 l/m 11,3 km/h (2 Bft) SW 225 0 min 0,000 mm 0 W/m 2,5 C -0,3 C 27,4 km/h (4 Bft) 100 %
09.01.2022 05:10 4,3 C 3,7 C 4,3 C 92 % 994,1 hPa 0,2 l/m 16,1 km/h (3 Bft) SW 225 0 min 0,000 mm 0 W/m 3,1 C -2,3 C 40,2 km/h (6 Bft) 100 %
09.01.2022 05:20 4,4 C 4,3 C 4,4 C 92 % 994,2 hPa 0,0 l/m 17,7 km/h (3 Bft) SW 225 0 min 0,000 mm 0 W/m 3,2 C -3,0 C 48,3 km/h (6 Bft) 100 %
09.01.2022 05:30 4,4 C 4,4 C 4,4 C 92 % 994,3 hPa 0,2 l/m 16,1 km/h (3 Bft) SW 225 0 min 0,000 mm 0 W/m 3,2 C -2,2 C 38,6 km/h (5 Bft) 100 %
09.01.2022 05:40 4,4 C 4,4 C 4,4 C 93 % 994,5 hPa 0,0 l/m 16,1 km/h (3 Bft) SW 225 0 min 0,000 mm 0 W/m 3,4 C -2,2 C 41,8 km/h (6 Bft) 99 %
09.01.2022 05:50 4,3 C 4,3 C 4,4 C 93 % 995,0 hPa 0,0 l/m 12,9 km/h (3 Bft) W-SW 247 0 min 0,000 mm 0 W/m 3,3 C -0,6 C 38,6 km/h (5 Bft) 100 %
09.01.2022 06:00 4,2 C 4,2 C 4,3 C 93 % 995,2 hPa 0,2 l/m 14,5 km/h (3 Bft) W-SW 247 0 min 0,000 mm 0 W/m 3,2 C -1,6 C 38,6 km/h (5 Bft) 100 %
09.01.2022 06:10 4,1 C 4,1 C 4,2 C 93 % 995,5 hPa 0,4 l/m 16,1 km/h (3 Bft) W 270 0 min 0,000 mm 0 W/m 3,1 C -2,6 C 37,0 km/h (5 Bft) 100 %
09.01.2022 06:20 3,9 C 3,9 C 4,1 C 93 % 996,1 hPa 0,6 l/m 19,3 km/h (3 Bft) W 270 0 min 0,000 mm 0 W/m 2,9 C -4,3 C 45,1 km/h (6 Bft) 90 %
09.01.2022 06:30 3,6 C 3,6 C 3,9 C 93 % 996,4 hPa 0,6 l/m 19,3 km/h (3 Bft) W 270 0 min 0,000 mm 0 W/m 2,6 C -4,7 C 51,5 km/h (7 Bft) 100 %
09.01.2022 06:40 3,4 C 3,4 C 3,6 C 92 % 996,8 hPa 0,4 l/m 20,9 km/h (4 Bft) W 270 0 min 0,000 mm 0 W/m 2,2 C -5,6 C 40,2 km/h (6 Bft) 100 %
09.01.2022 06:50 3,0 C 3,0 C 3,4 C 92 % 997,1 hPa 0,6 l/m 24,1 km/h (4 Bft) W 270 0 min 0,000 mm 0 W/m 1,8 C -7,3 C 40,2 km/h (6 Bft) 100 %
09.01.2022 07:00 2,8 C 2,8 C 3,0 C 93 % 997,3 hPa 0,6 l/m 16,1 km/h (3 Bft) W 270 0 min 0,000 mm 0 W/m 1,8 C -4,2 C 43,5 km/h (6 Bft) 100 %
09.01.2022 07:10 2,7 C 2,7 C 2,8 C 93 % 997,7 hPa 0,4 l/m 4,8 km/h (1 Bft) W 270 0 min 0,000 mm 0 W/m 1,7 C 2,7 C 24,1 km/h (4 Bft) 100 %
09.01.2022 07:20 2,6 C 2,6 C 2,7 C 93 % 997,8 hPa 0,6 l/m 4,8 km/h (1 Bft) W 270 0 min 0,000 mm 0 W/m 1,6 C 2,6 C 25,7 km/h (4 Bft) 100 %
09.01.2022 07:30 2,6 C 2,6 C 2,6 C 93 % 997,8 hPa 0,2 l/m 6,4 km/h (2 Bft) W 270 0 min 0,000 mm 0 W/m 1,6 C 2,6 C 30,6 km/h (5 Bft) 100 %
09.01.2022 07:40 2,6 C 2,6 C 2,6 C 93 % 998,1 hPa 0,4 l/m 4,8 km/h (1 Bft) W-SW 247 0 min 0,000 mm 0 W/m 1,6 C 2,6 C 19,3 km/h (3 Bft) 99 %
09.01.2022 07:50 2,8 C 2,6 C 2,8 C 93 % 998,2 hPa 0,4 l/m 8,0 km/h (2 Bft) W 270 0 min 0,000 mm 0 W/m 1,8 C 1,3 C 38,6 km/h (5 Bft) 100 %
09.01.2022 08:00 2,9 C 2,8 C 2,9 C 93 % 998,5 hPa 0,4 l/m 9,7 km/h (2 Bft) W-SW 247 0 min 0,000 mm 0 W/m 1,9 C -0,0 C 35,4 km/h (5 Bft) 100 %
09.01.2022 08:10 2,9 C 2,9 C 2,9 C 93 % 998,7 hPa 0,2 l/m 9,7 km/h (2 Bft) W-SW 247 0 min 0,000 mm 0 W/m 1,9 C -0,0 C 37,0 km/h (5 Bft) 90 %
09.01.2022 08:20 2,9 C 2,9 C 2,9 C 93 % 999,2 hPa 0,4 l/m 8,0 km/h (2 Bft) W-SW 247 0 min 0,000 mm 0 W/m 1,9 C 1,4 C 29,0 km/h (5 Bft) 100 %
09.01.2022 08:30 2,9 C 2,9 C 2,9 C 93 % 999,3 hPa 0,2 l/m 4,8 km/h (1 Bft) W-SW 247 0 min 0,000 mm 0 W/m 1,9 C 2,9 C 22,5 km/h (4 Bft) 100 %
09.01.2022 08:40 2,9 C 2,9 C 2,9 C 93 % 999,7 hPa 0,2 l/m 8,0 km/h (2 Bft) W-SW 247 0 min 0,000 mm 0 W/m 1,9 C 1,4 C 29,0 km/h (5 Bft) 100 %
09.01.2022 08:50 2,9 C 2,9 C 2,9 C 93 % 999,9 hPa 0,4 l/m 6,4 km/h (2 Bft) W-SW 247 0 min 0,000 mm 5 W/m 1,9 C 2,9 C 37,0 km/h (5 Bft) 100 %
09.01.2022 09:00 2,9 C 2,9 C 2,9 C 93 % 1000,2 hPa 0,6 l/m 4,8 km/h (1 Bft) W-SW 247 0 min 0,000 mm 5 W/m 1,9 C 2,9 C 29,0 km/h (5 Bft) 100 %
09.01.2022 09:10 2,9 C 2,8 C 2,9 C 93 % 1000,3 hPa 0,4 l/m 8,0 km/h (2 Bft) W 270 0 min 0,000 mm 7 W/m 1,9 C 1,4 C 37,0 km/h (5 Bft) 100 %
09.01.2022 09:20 2,9 C 2,9 C 2,9 C 93 % 1000,4 hPa 0,0 l/m 8,0 km/h (2 Bft) W 270 0 min 0,000 mm 14 W/m 1,9 C 1,4 C 27,4 km/h (4 Bft) 100 %
09.01.2022 09:30 3,0 C 2,9 C 3,0 C 93 % 1000,6 hPa 0,2 l/m 9,7 km/h (2 Bft) W-SW 247 0 min 0,000 mm 26 W/m 2,0 C 0,1 C 35,4 km/h (5 Bft) 100 %
09.01.2022 09:40 3,0 C 3,0 C 3,1 C 93 % 1000,9 hPa 0,0 l/m 12,9 km/h (3 Bft) W-SW 247 0 min 0,000 mm 37 W/m 2,0 C -2,1 C 40,2 km/h (6 Bft) 100 %
09.01.2022 09:50 3,1 C 3,0 C 3,1 C 93 % 1001,0 hPa 0,0 l/m 8,0 km/h (2 Bft) W-SW 247 0 min 0,000 mm 40 W/m 2,1 C 1,6 C 27,4 km/h (4 Bft) 90 %
09.01.2022 10:00 3,0 C 3,0 C 3,1 C 93 % 1001,4 hPa 0,0 l/m 9,7 km/h (2 Bft) W-SW 247 0 min 0,025 mm 40 W/m 2,0 C 0,1 C 27,4 km/h (4 Bft) 100 %
09.01.2022 10:10 3,0 C 3,0 C 3,1 C 92 % 1001,5 hPa 0,0 l/m 9,7 km/h (2 Bft) W-SW 247 0 min 0,000 mm 39 W/m 1,8 C 0,1 C 33,8 km/h (5 Bft) 100 %
09.01.2022 10:20 3,0 C 3,0 C 3,0 C 92 % 1001,7 hPa 0,0 l/m 4,8 km/h (1 Bft) W-SW 247 0 min 0,000 mm 37 W/m 1,8 C 3,0 C 20,9 km/h (4 Bft) 100 %
09.01.2022 10:30 2,9 C 2,9 C 3,0 C 92 % 1002,0 hPa 0,0 l/m 6,4 km/h (2 Bft) SW 225 0 min 0,000 mm 35 W/m 1,7 C 2,9 C 24,1 km/h (4 Bft) 100 %
09.01.2022 10:40 2,9 C 2,9 C 2,9 C 92 % 1002,2 hPa 0,0 l/m 4,8 km/h (1 Bft) SW 225 0 min 0,000 mm 37 W/m 1,7 C 2,9 C 22,5 km/h (4 Bft) 100 %
09.01.2022 10:50 2,9 C 2,9 C 2,9 C 92 % 1002,3 hPa 0,0 l/m 6,4 km/h (2 Bft) SW 225 0 min 0,000 mm 74 W/m 1,7 C 2,9 C 24,1 km/h (4 Bft) 100 %
09.01.2022 11:00 3,0 C 2,9 C 3,0 C 92 % 1002,4 hPa 0,0 l/m 4,8 km/h (1 Bft) W-SW 247 0 min 0,025 mm 90 W/m 1,8 C 3,0 C 20,9 km/h (4 Bft) 100 %
09.01.2022 11:10 3,1 C 3,0 C 3,1 C 91 % 1002,4 hPa 0,0 l/m 6,4 km/h (2 Bft) W-SW 247 0 min 0,000 mm 100 W/m 1,8 C 3,1 C 27,4 km/h (4 Bft) 100 %
09.01.2022 11:20 3,2 C 3,1 C 3,2 C 91 % 1002,6 hPa 0,0 l/m 6,4 km/h (2 Bft) W 270 0 min 0,000 mm 83 W/m 1,9 C 3,2 C 27,4 km/h (4 Bft) 100 %
09.01.2022 11:30 3,2 C 3,1 C 3,2 C 90 % 1002,8 hPa 0,0 l/m 6,4 km/h (2 Bft) W-SW 247 0 min 0,000 mm 70 W/m 1,7 C 3,2 C 20,9 km/h (4 Bft) 99 %
09.01.2022 11:40 3,3 C 3,2 C 3,3 C 90 % 1002,7 hPa 0,0 l/m 6,4 km/h (2 Bft) W-SW 247 0 min 0,000 mm 114 W/m 1,8 C 3,3 C 27,4 km/h (4 Bft) 100 %
09.01.2022 11:50 3,4 C 3,3 C 3,4 C 90 % 1002,8 hPa 0,0 l/m 4,8 km/h (1 Bft) W 270 0 min 0,000 mm 132 W/m 1,9 C 3,4 C 20,9 km/h (4 Bft) 100 %
09.01.2022 12:00 3,6 C 3,4 C 3,6 C 89 % 1002,8 hPa 0,0 l/m 9,7 km/h (2 Bft) W-SW 247 10 min 0,051 mm 179 W/m 2,0 C 0,8 C 30,6 km/h (5 Bft) 100 %
09.01.2022 12:10 3,8 C 3,6 C 3,8 C 88 % 1002,9 hPa 0,0 l/m 9,7 km/h (2 Bft) W-SW 247 0 min 0,000 mm 151 W/m 2,0 C 1,0 C 30,6 km/h (5 Bft) 100 %
09.01.2022 12:20 3,9 C 3,8 C 3,9 C 89 % 1002,9 hPa 0,0 l/m 6,4 km/h (2 Bft) SW 225 0 min 0,000 mm 120 W/m 2,3 C 3,9 C 19,3 km/h (3 Bft) 100 %
09.01.2022 12:30 3,9 C 3,9 C 3,9 C 90 % 1003,0 hPa 0,0 l/m 6,4 km/h (2 Bft) SW 225 10 min 0,000 mm 178 W/m 2,4 C 3,9 C 27,4 km/h (4 Bft) 100 %
09.01.2022 12:40 3,8 C 3,8 C 3,9 C 89 % 1003,0 hPa 0,0 l/m 12,9 km/h (3 Bft) W-SW 247 0 min 0,000 mm 104 W/m 2,2 C -1,2 C 33,8 km/h (5 Bft) 100 %
09.01.2022 12:50 3,8 C 3,8 C 3,8 C 89 % 1003,0 hPa 0,0 l/m 6,4 km/h (2 Bft) SW 225 0 min 0,000 mm 134 W/m 2,2 C 3,8 C 22,5 km/h (4 Bft) 100 %
09.01.2022 13:00 3,8 C 3,8 C 3,8 C 89 % 1003,0 hPa 0,0 l/m 8,0 km/h (2 Bft) SW 225 0 min 0,051 mm 151 W/m 2,2 C 2,3 C 32,2 km/h (5 Bft) 100 %
09.01.2022 13:10 4,1 C 3,8 C 4,1 C 90 % 1003,0 hPa 0,0 l/m 6,4 km/h (2 Bft) W 270 10 min 0,000 mm 288 W/m 2,6 C 4,1 C 30,6 km/h (5 Bft) 100 %
09.01.2022 13:20 4,4 C 4,1 C 4,4 C 87 % 1003,0 hPa 0,0 l/m 8,0 km/h (2 Bft) W-SW 247 10 min 0,000 mm 311 W/m 2,4 C 3,0 C 29,0 km/h (5 Bft) 100 %
09.01.2022 13:40 4,7 C 4,1 C 4,9 C 85 % 1003,1 hPa 0,0 l/m 9,1 km/h (2 Bft) W 262 20 min 0,001 mm 197 W/m 2,4 C 2,4 C 25,7 km/h (4 Bft) 100 %
09.01.2022 13:50 4,6 C 4,6 C 4,7 C 86 % 1003,1 hPa 0,0 l/m 9,5 km/h (2 Bft) SW 224 0 min 0,000 mm 114 W/m 2,5 C 2,0 C 27,4 km/h (4 Bft) 100 %
09.01.2022 14:00 4,3 C 4,3 C 4,6 C 87 % 1003,0 hPa 0,0 l/m 10,4 km/h (2 Bft) W 278 10 min 0,101 mm 213 W/m 2,3 C 1,0 C 25,7 km/h (4 Bft) 100 %
09.01.2022 14:10 4,3 C 4,3 C 4,3 C 88 % 1002,9 hPa 0,0 l/m 3,7 km/h (1 Bft) W-SW 246 10 min 0,000 mm 253 W/m 2,5 C 4,3 C 20,9 km/h (4 Bft) 100 %
09.01.2022 14:20 4,3 C 4,3 C 4,3 C 88 % 1003,0 hPa 0,0 l/m 8,8 km/h (2 Bft) W 269 0 min 0,000 mm 113 W/m 2,5 C 2,2 C 30,6 km/h (5 Bft) 100 %
09.01.2022 14:30 4,5 C 4,3 C 4,5 C 87 % 1003,1 hPa 0,0 l/m 6,3 km/h (2 Bft) W-SW 254 0 min 0,000 mm 90 W/m 2,5 C 4,5 C 27,4 km/h (4 Bft) 100 %
09.01.2022 14:40 4,6 C 4,5 C 4,6 C 86 % 1003,3 hPa 0,0 l/m 5,4 km/h (1 Bft) W-SW 246 10 min 0,000 mm 174 W/m 2,5 C 4,6 C 27,4 km/h (4 Bft) 100 %
09.01.2022 14:50 4,6 C 4,6 C 4,6 C 85 % 1003,5 hPa 0,0 l/m 7,8 km/h (2 Bft) W-SW 246 0 min 0,000 mm 132 W/m 2,3 C 3,4 C 27,4 km/h (4 Bft) 100 %
09.01.2022 15:00 4,8 C 4,6 C 4,8 C 84 % 1003,5 hPa 0,0 l/m 5,9 km/h (2 Bft) W 267 0 min 0,000 mm 137 W/m 2,3 C 4,8 C 19,3 km/h (3 Bft) 100 %
09.01.2022 15:10 4,8 C 4,8 C 4,8 C 84 % 1003,6 hPa 0,0 l/m 5,3 km/h (1 Bft) W-SW 242 0 min 0,051 mm 148 W/m 2,3 C 4,8 C 20,9 km/h (4 Bft) 100 %
09.01.2022 15:20 4,8 C 4,8 C 4,8 C 83 % 1003,6 hPa 0,0 l/m 5,8 km/h (2 Bft) SW 234 0 min 0,000 mm 84 W/m 2,2 C 4,8 C 16,1 km/h (3 Bft) 100 %
09.01.2022 15:30 4,8 C 4,8 C 4,8 C 83 % 1003,8 hPa 0,0 l/m 9,0 km/h (2 Bft) SW 236 0 min 0,000 mm 116 W/m 2,2 C 2,6 C 19,3 km/h (3 Bft) 100 %
09.01.2022 15:40 4,9 C 4,8 C 4,9 C 83 % 1003,9 hPa 0,0 l/m 7,3 km/h (2 Bft) W-SW 258 0 min 0,000 mm 79 W/m 2,3 C 4,1 C 22,5 km/h (4 Bft) 100 %
09.01.2022 15:50 4,7 C 4,7 C 4,9 C 83 % 1004,0 hPa 0,0 l/m 6,9 km/h (2 Bft) SW 236 0 min 0,000 mm 72 W/m 2,1 C 4,3 C 19,3 km/h (3 Bft) 100 %
09.01.2022 16:00 4,5 C 4,5 C 4,7 C 83 % 1004,2 hPa 0,0 l/m 6,1 km/h (2 Bft) SW 225 0 min 0,000 mm 42 W/m 1,9 C 4,5 C 16,1 km/h (3 Bft) 100 %
09.01.2022 16:10 4,6 C 4,4 C 4,6 C 84 % 1004,3 hPa 0,0 l/m 6,0 km/h (2 Bft) SW 228 0 min 0,051 mm 40 W/m 2,1 C 4,6 C 16,1 km/h (3 Bft) 100 %
09.01.2022 16:20 4,4 C 4,4 C 4,6 C 84 % 1004,4 hPa 0,0 l/m 6,9 km/h (2 Bft) SW 234 0 min 0,000 mm 23 W/m 1,9 C 4,0 C 16,1 km/h (3 Bft) 100 %
09.01.2022 16:30 4,1 C 4,1 C 4,4 C 85 % 1004,6 hPa 0,0 l/m 8,3 km/h (2 Bft) SW 232 0 min 0,000 mm 12 W/m 1,8 C 2,4 C 19,3 km/h (3 Bft) 100 %
09.01.2022 16:40 3,8 C 3,8 C 4,1 C 85 % 1004,6 hPa 0,0 l/m 9,4 km/h (2 Bft) W-SW 256 0 min 0,000 mm 7 W/m 1,5 C 1,2 C 20,9 km/h (4 Bft) 100 %
09.01.2022 16:50 3,5 C 3,5 C 3,8 C 86 % 1004,8 hPa 0,0 l/m 5,2 km/h (1 Bft) W-SW 240 0 min 0,000 mm 0 W/m 1,4 C 3,5 C 17,7 km/h (3 Bft) 100 %
09.01.2022 17:00 3,3 C 3,3 C 3,5 C 87 % 1004,8 hPa 0,0 l/m 2,3 km/h (1 Bft) SW 235 0 min 0,025 mm 0 W/m 1,3 C 3,3 C 9,7 km/h (2 Bft) 100 %
09.01.2022 17:10 3,0 C 3,0 C 3,3 C 87 % 1005,0 hPa 0,0 l/m 0,8 km/h (0 Bft) SW 231 0 min 0,000 mm 0 W/m 1,1 C 3,0 C 11,3 km/h (2 Bft) 100 %
09.01.2022 17:20 2,8 C 2,8 C 3,0 C 88 % 1005,2 hPa 0,0 l/m 0,0 km/h (0 Bft) SW 225 0 min 0,000 mm 0 W/m 1,0 C 2,8 C 0,0 km/h (0 Bft) 100 %
09.01.2022 17:30 2,6 C 2,6 C 2,8 C 88 % 1005,2 hPa 0,0 l/m 0,6 km/h (0 Bft) W-SW 257 0 min 0,000 mm 0 W/m 0,8 C 2,6 C 12,9 km/h (3 Bft) 100 %
09.01.2022 17:40 2,5 C 2,5 C 2,6 C 88 % 1005,4 hPa 0,0 l/m 2,3 km/h (1 Bft) SW 224 0 min 0,000 mm 0 W/m 0,7 C 2,5 C 14,5 km/h (3 Bft) 100 %
09.01.2022 17:50 2,4 C 2,4 C 2,5 C 89 % 1005,5 hPa 0,0 l/m 0,7 km/h (0 Bft) SW 221 0 min 0,000 mm 0 W/m 0,8 C 2,4 C 6,4 km/h (2 Bft) 100 %
09.01.2022 18:00 2,4 C 2,4 C 2,4 C 90 % 1005,7 hPa 0,0 l/m 0,0 km/h (0 Bft) SW 219 0 min 0,000 mm 0 W/m 0,9 C 2,4 C 0,0 km/h (0 Bft) 100 %
09.01.2022 18:10 2,3 C 2,3 C 2,4 C 90 % 1005,8 hPa 0,0 l/m 0,3 km/h (0 Bft) SW 214 0 min 0,000 mm 0 W/m 0,8 C 2,3 C 6,4 km/h (2 Bft) 100 %
09.01.2022 18:20 2,3 C 2,3 C 2,4 C 90 % 1005,8 hPa 0,0 l/m 0,6 km/h (0 Bft) S-SW 196 0 min 0,000 mm 0 W/m 0,8 C 2,3 C 6,4 km/h (2 Bft) 99 %
09.01.2022 18:30 2,2 C 2,2 C 2,3 C 91 % 1005,8 hPa 0,0 l/m 0,9 km/h (0 Bft) S-SO 165 0 min 0,000 mm 0 W/m 0,9 C 2,2 C 8,0 km/h (2 Bft) 100 %
09.01.2022 18:40 2,1 C 2,1 C 2,2 C 91 % 1005,9 hPa 0,0 l/m 0,6 km/h (0 Bft) S 179 0 min 0,000 mm 0 W/m 0,8 C 2,1 C 8,0 km/h (2 Bft) 100 %
09.01.2022 18:50 1,9 C 1,9 C 2,1 C 92 % 1006,1 hPa 0,0 l/m 1,1 km/h (1 Bft) S-SO 166 0 min 0,000 mm 0 W/m 0,7 C 1,9 C 8,0 km/h (2 Bft) 99 %
09.01.2022 19:00 1,8 C 1,8 C 1,9 C 92 % 1006,3 hPa 0,0 l/m 0,0 km/h (0 Bft) S-SO 166 0 min 0,000 mm 0 W/m 0,6 C 1,8 C 0,0 km/h (0 Bft) 99 %
09.01.2022 19:10 1,7 C 1,7 C 1,8 C 92 % 1006,3 hPa 0,0 l/m 0,0 km/h (0 Bft) S-SO 166 0 min 0,000 mm 0 W/m 0,5 C 1,7 C 0,0 km/h (0 Bft) 100 %
09.01.2022 19:20 1,6 C 1,6 C 1,7 C 92 % 1006,3 hPa 0,0 l/m 0,0 km/h (0 Bft) S-SO 166 0 min 0,000 mm 0 W/m 0,4 C 1,6 C 0,0 km/h (0 Bft) 100 %
09.01.2022 19:30 1,5 C 1,5 C 1,6 C 92 % 1006,4 hPa 0,0 l/m 0,0 km/h (0 Bft) S-SO 166 0 min 0,000 mm 0 W/m 0,3 C 1,5 C 0,0 km/h (0 Bft) 100 %
09.01.2022 19:40 1,4 C 1,4 C 1,5 C 92 % 1006,5 hPa 0,0 l/m 0,0 km/h (0 Bft) S-SO 166 0 min 0,000 mm 0 W/m 0,2 C 1,4 C 0,0 km/h (0 Bft) 100 %
09.01.2022 19:50 1,3 C 1,3 C 1,4 C 92 % 1006,5 hPa 0,0 l/m 0,0 km/h (0 Bft) S-SO 166 0 min 0,000 mm 0 W/m 0,1 C 1,3 C 0,0 km/h (0 Bft) 99 %
09.01.2022 20:00 1,1 C 1,1 C 1,3 C 92 % 1006,7 hPa 0,0 l/m 0,0 km/h (0 Bft) S-SO 166 0 min 0,000 mm 0 W/m -0,1 C 1,1 C 0,0 km/h (0 Bft) 100 %
09.01.2022 20:10 0,9 C 0,9 C 1,1 C 93 % 1006,8 hPa 0,0 l/m 0,0 km/h (0 Bft) S-SO 166 0 min 0,000 mm 0 W/m -0,1 C 0,9 C 0,0 km/h (0 Bft) 100 %
09.01.2022 20:20 0,8 C 0,8 C 0,9 C 93 % 1007,0 hPa 0,0 l/m 0,0 km/h (0 Bft) S-SO 166 0 min 0,000 mm 0 W/m -0,2 C 0,8 C 0,0 km/h (0 Bft) 100 %
09.01.2022 20:30 0,9 C 0,8 C 0,9 C 93 % 1007,1 hPa 0,0 l/m 0,0 km/h (0 Bft) S-SO 166 0 min 0,000 mm 0 W/m -0,1 C 0,9 C 0,0 km/h (0 Bft) 100 %
09.01.2022 20:40 0,8 C 0,8 C 0,9 C 93 % 1007,2 hPa 0,0 l/m 0,0 km/h (0 Bft) S-SO 166 0 min 0,000 mm 0 W/m -0,2 C 0,8 C 0,0 km/h (0 Bft) 100 %
09.01.2022 20:50 0,6 C 0,6 C 0,8 C 92 % 1007,3 hPa 0,0 l/m 0,0 km/h (0 Bft) S-SO 166 0 min 0,000 mm 0 W/m -0,5 C 0,6 C 0,0 km/h (0 Bft) 100 %
09.01.2022 21:00 0,4 C 0,4 C 0,6 C 93 % 1007,4 hPa 0,0 l/m 0,0 km/h (0 Bft) S-SO 166 0 min 0,000 mm 0 W/m -0,6 C 0,4 C 0,0 km/h (0 Bft) 91 %
09.01.2022 21:10 0,5 C 0,4 C 0,5 C 93 % 1007,5 hPa 0,0 l/m 0,0 km/h (0 Bft) N 0 0 min 0,000 mm 0 W/m -0,5 C 0,5 C 0,0 km/h (0 Bft) 100 %
09.01.2022 21:20 0,7 C 0,5 C 0,7 C 93 % 1007,7 hPa 0,0 l/m 0,0 km/h (0 Bft) N 0 0 min 0,000 mm 0 W/m -0,3 C 0,7 C 0,0 km/h (0 Bft) 100 %
09.01.2022 21:30 0,4 C 0,4 C 0,7 C 93 % 1007,8 hPa 0,0 l/m 0,0 km/h (0 Bft) N 0 0 min 0,000 mm 0 W/m -0,6 C 0,4 C 0,0 km/h (0 Bft) 100 %
09.01.2022 21:40 0,7 C 0,4 C 0,7 C 92 % 1007,8 hPa 0,0 l/m 0,0 km/h (0 Bft) N 0 0 min 0,000 mm 0 W/m -0,4 C 0,7 C 0,0 km/h (0 Bft) 100 %
09.01.2022 21:50 0,7 C 0,7 C 0,8 C 92 % 1007,8 hPa 0,0 l/m 0,0 km/h (0 Bft) N 0 0 min 0,000 mm 0 W/m -0,4 C 0,7 C 0,0 km/h (0 Bft) 100 %
09.01.2022 22:00 0,7 C 0,7 C 0,8 C 92 % 1008,0 hPa 0,0 l/m 0,0 km/h (0 Bft) N 0 0 min 0,000 mm 0 W/m -0,4 C 0,7 C 0,0 km/h (0 Bft) 100 %
09.01.2022 22:10 0,6 C 0,6 C 0,7 C 92 % 1008,2 hPa 0,0 l/m 0,0 km/h (0 Bft) N 0 0 min 0,000 mm 0 W/m -0,5 C 0,6 C 0,0 km/h (0 Bft) 89 %
09.01.2022 22:20 0,6 C 0,6 C 0,6 C 92 % 1008,4 hPa 0,0 l/m 0,0 km/h (0 Bft) N 0 0 min 0,000 mm 0 W/m -0,5 C 0,6 C 0,0 km/h (0 Bft) 100 %
09.01.2022 22:30 0,5 C 0,5 C 0,6 C 92 % 1008,4 hPa 0,0 l/m 0,0 km/h (0 Bft) N 0 0 min 0,000 mm 0 W/m -0,6 C 0,5 C 0,0 km/h (0 Bft) 100 %
09.01.2022 22:40 0,5 C 0,5 C 0,5 C 92 % 1008,4 hPa 0,0 l/m 0,0 km/h (0 Bft) N 0 0 min 0,000 mm 0 W/m -0,6 C 0,5 C 0,0 km/h (0 Bft) 100 %
09.01.2022 22:50 0,4 C 0,4 C 0,5 C 92 % 1008,7 hPa 0,0 l/m 0,0 km/h (0 Bft) N 0 0 min 0,000 mm 0 W/m -0,7 C 0,4 C 0,0 km/h (0 Bft) 100 %
09.01.2022 23:00 0,4 C 0,4 C 0,4 C 92 % 1008,8 hPa 0,0 l/m 0,0 km/h (0 Bft) N 0 0 min 0,000 mm 0 W/m -0,7 C 0,4 C 0,0 km/h (0 Bft) 100 %
09.01.2022 23:10 0,4 C 0,4 C 0,4 C 92 % 1008,9 hPa 0,0 l/m 0,0 km/h (0 Bft) N 0 0 min 0,000 mm 0 W/m -0,7 C 0,4 C 0,0 km/h (0 Bft) 100 %
09.01.2022 23:20 0,4 C 0,4 C 0,4 C 92 % 1009,0 hPa 0,0 l/m 0,0 km/h (0 Bft) N 0 0 min 0,000 mm 0 W/m -0,7 C 0,4 C 0,0 km/h (0 Bft) 100 %
09.01.2022 23:30 0,4 C 0,4 C 0,4 C 92 % 1009,1 hPa 0,0 l/m 0,0 km/h (0 Bft) N 0 0 min 0,000 mm 0 W/m -0,7 C 0,4 C 0,0 km/h (0 Bft) 100 %
09.01.2022 23:40 0,4 C 0,4 C 0,4 C 92 % 1009,3 hPa 0,0 l/m 0,0 km/h (0 Bft) N 0 0 min 0,000 mm 0 W/m -0,7 C 0,4 C 0,0 km/h (0 Bft) 100 %
09.01.2022 23:50 0,4 C 0,4 C 0,4 C 92 % 1009,4 hPa 0,0 l/m 0,0 km/h (0 Bft) N 0 0 min 0,000 mm 0 W/m -0,7 C 0,4 C 0,0 km/h (0 Bft) 100 %
_ Min-Zeit 21:00 21:00 23:00 15:20 03:00 - 17:20 - - - - - 22:50 06:50 17:20 01:00
Minimum _ 0,4 C 0,4 C 0,4 C 83 % 993,3 hPa - 0,0 km/h (0 Bft) - - - - - -0,7 C -7,3 C 0,0 km/h (0 Bft) 89 %
_ Max-Zeit 13:40 15:10 13:40 02:20 23:50 06:20 06:50 - - 13:40 14:00 13:20 05:40 15:00 06:30 03:40
Maximum _ 4,9 C 4,8 C 4,9 C 93 % 1009,4 hPa 0,6 l/m 24,1 km/h
W (4 Bft)
- - 20 min 0,101 mm 311 W/m 3,4 C 4,8 C 51,5 km/h
W-SW (7 Bft)
100 %
Durchschnitt _ 2,8 C 2,8 C 2,9 C 91 % 1001,3 hPa #14,0 l/m 6,2 km/h (2 Bft) W-SW - #1:30 h #0,406 mm 99 W/m 1,4 C 1,4 C 19,8 km/h (4 Bft) 99 %
PRIVATE WETTERSTATION BILLIGHEIM-ALLFELD - www.neckar-odenwald-wetter.de - Holger Sonntag